Wainwright, AK (99782)

8:31 PM AKDT on October 19, 2014 (GMT -0800)
Wainwright | Change Station
CLOSE
Current Station
Airport
Location: Wainwright,
Elevation: 39 ft
Nearby Weather Stations

Elev 39 ft 70.64 °N, 159.99 °W | Updated 1 hour ago

Overcast
Overcast
21 °F
Feels Like 3 °F
N
29
Wind Variable Wind from ENE
Gusts 36 mph

Today
High -- | Low -- °F
--% Chance of Precip.
Yesterday
High -- | Low -- °F
Precip. -- in
10:12 AM 6:30 PM
Waning Crescent, 13% visible
Pressure 29.80 in
Visibility 1.0 miles
Clouds Few 1600 ft
Overcast 10000 ft
Windchill 3 °F
Dew Point 18 °F
Humidity 86%
Rainfall 0.00 in
Snow Depth Not available.
UV 0 out of 12
Pollen Not available.
Air Quality Not available.
Flu Activity Sporadic
SPECI PAWI 200306Z AUTO 06025G31KT 1SM UP BR FEW016 OVC100 M06/M08 A2980 RMK AO2 PK WND 06031/0305 UPB06SNE06 P0000 TSNO

More Conditions Fewer Conditions

Pressure 29.80 in
Visibility 1.0 miles
Clouds Few 1600 ft
Overcast 10000 ft
Windchill 3 °F
Dew Point 18 °F
Humidity 86%
Rainfall 0.00 in
Snow Depth Not available.
UV 0 out of 12
Pollen Not available.
Air Quality Not available.
Flu Activity Sporadic
SPECI PAWI 200306Z AUTO 06025G31KT 1SM UP BR FEW016 OVC100 M06/M08 A2980 RMK AO2 PK WND 06031/0305 UPB06SNE06 P0000 TSNO

More Conditions Fewer Conditions

10-Day Weather Forecast

Almanac

Astronomy

Oct. 19, 2014 Rise Set
Actual Time 10:12 AM AKDT 6:30 PM AKDT
Civil Twilight 9:05 AM AKDT 7:37 PM AKDT
Nautical Twilight 7:52 AM AKDT 8:50 PM AKDT
Astronomical Twilight 6:38 AM AKDT 10:03 PM AKDT
Moon 4:07 AM AKDT (10/19) 6:19 PM AKDT (10/19)
Length of Visible Light 10h 31m
Length of Day
8h 17m
Waning Crescent, 13% of the Moon is Illuminated
Oct 20
Waning Crescent
Oct 23
New
Oct 30
First Quarter
Nov 6
Full
Nov 14
Last Quarter

Yesterday's Extremes

State Highs State Lows

Community

WunderPhotos

Upload Photos

1,763,294 photos uploaded!

Nearby

Snow Depth

Station Depth Elevation
Imnaviat Creek 95 in 3050 ft
Atigun Pass 13 in 4800 ft
Coldfoot 4 in 1040 ft
Gobblers Knob 2 in 2030 ft
Rocky Point 3 in 500 ft

Earthquake Activity

City Distance Mag. Time & Date
No recent earthquake activity has been reported nearby.
Minimum magnitude displayed is 2.5.

Coastal Water Temperatures

Place Temperature
No Stations Reporting

Nearby Weather Stations